Portada
METAR-TAF:

METAR-TAF

Aeropuertos :

Córdoba, España

Aeropuerto de Córdoba

latitud: 37-51N, longitud: 004-51W, altitud: 90 m

Observación

El informe se hizo hace 17 minutos, a las 08:00 UTC
Viento calma
Temperatura 13°C
Humedad 94%
Presión 1027 hPa
Visibilidad: 6000 m
Cielo cubierto a una altura de 900 ft

METAR: LEBA 280800Z 00000KT 6000 OVC009 13/12 Q1027

Hora: 10:17 (08:17 UTC)

Pronóstico

El informe se hizo hace 3 horas y 17 minutos, a las 05:00 UTC
Pronóstico válido del 28 a las 06 UTC al 28 a las 15 UTC
Viento 5 kt del este-noreste
Visibilidad 10 km o más
Cielo nuboso a una altura de 1000 ft
Evolucionando progresivamente
del 28 a las 07 UTC al 28 a las 09 UTC
Nubes dispersas a una altura de 2500 ft

TAF: LEBA 280500Z 2806/2815 06005KT 9999 BKN010 BECMG 2807/2809 SCT025

Observaciones y pronósticos meteorológicos de más de 4000 aeropuertos (mensajes METAR y TAF).

Los puntos amarillos y rojos representan las estaciones disponibles.

Ponga el ratón en el punto deseado para ver el nombre de la estación.

Haga clic para ver las observaciones y los pronósticos meteorológicos.

Para cambiar el mapa : haga clic en los botones verdes con una cruz de color negro para hacer un zoom, en el botón verde con un guión para alejar o en las flechas verdes para mapas adyacentes.


METAR-TAF: